Time;durP1;ratioP1;P1;durP2;ratioP2;P2;SDS_P1;SDS_P2;PMS_P1;PMS_P2;Temp;Humidity;BMP_temperature;BMP_pressure;BME280_temperature;BME280_humidity;BME280_pressure;Samples;Min_cycle;Max_cycle;Signal;HPM_P1;HPM_P2
2023/05/01 00:00:52;;;;;;;;;;;;;;;15.83;44.76;100648.63;4957151;28;7039;-73
2023/05/01 00:03:18;;;;;;;;;;;;;;;15.86;44.90;100652.13;4989596;28;7050;-72
2023/05/01 00:05:45;;;;;;;;;;;;;;;15.86;45.40;100652.13;5001063;28;7749;-75
2023/05/01 00:08:11;;;;;;;;;;;;;;;15.89;44.73;100647.94;4975878;28;6999;-73
2023/05/01 00:10:37;;;;;;;;;;;;;;;15.91;44.53;100650.63;4978565;28;6974;-73
2023/05/01 00:13:03;;;;;;;;;;;;;;;15.91;44.90;100645.44;4977010;28;6879;-74
2023/05/01 00:15:30;;;;;;;;;;;;;;;15.90;44.62;100641.97;5007208;28;7034;-72
2023/05/01 00:17:57;;;;;;;;;;;;;;;15.88;45.17;100640.13;4973844;28;6836;-73
2023/05/01 00:20:28;;;;;;;;;;;;;;;15.85;44.83;100633.19;4976579;28;7054;-73
2023/05/01 00:22:54;;;;;;;;;;;;;;;15.79;45.35;100630.41;5011642;28;6803;-73
2023/05/01 00:25:20;;;;;;;;;;;;;;;15.76;45.17;100628.59;4974699;28;6971;-72
2023/05/01 00:27:47;;;;;;;;;;;;;;;15.74;45.51;100629.38;4977523;28;7167;-73
2023/05/01 00:30:12;;;;;;;;;;;;;;;15.72;45.60;100623.28;4961451;28;7205;-74
2023/05/01 00:32:38;;;;;;;;;;;;;;;15.71;45.76;100619.84;4990868;28;6964;-75
2023/05/01 00:35:04;;;;;;;;;;;;;;;15.71;45.61;100617.25;4983550;28;6803;-73
2023/05/01 00:37:30;;;;;;;;;;;;;;;15.72;45.37;100615.53;5004587;28;6795;-72
2023/05/01 00:39:55;;;;;;;;;;;;;;;15.72;45.42;100605.22;5021940;28;7482;-73
2023/05/01 00:42:21;;;;;;;;;;;;;;;15.73;45.70;100614.72;4999309;28;6954;-73
2023/05/01 00:44:46;;;;;;;;;;;;;;;15.73;45.42;100605.25;4982384;28;6788;-73
2023/05/01 00:47:13;;;;;;;;;;;;;;;15.74;45.90;100603.53;5015279;28;6768;-72
2023/05/01 00:49:41;;;;;;;;;;;;;;;15.73;45.83;100601.78;4983935;28;7172;-74
2023/05/01 00:52:08;;;;;;;;;;;;;;;15.69;45.91;100593.94;5001972;28;6995;-73
2023/05/01 00:54:36;;;;;;;;;;;;;;;15.66;45.83;100593.88;4984605;28;6998;-73
2023/05/01 00:57:02;;;;;;;;;;;;;;;15.64;46.44;100589.47;5004204;28;7000;-74
2023/05/01 00:59:29;;;;;;;;;;;;;;;15.63;46.14;100587.72;4995681;28;6974;-73
2023/05/01 01:01:55;;;;;;;;;;;;;;;15.59;46.57;100581.59;5006127;28;7129;-73
2023/05/01 01:04:21;;;;;;;;;;;;;;;15.60;46.13;100577.31;4980664;28;6796;-74
2023/05/01 01:07:30;;;;;;;;;;;;;;;15.59;46.30;100579.00;4970626;28;9451;-74
2023/05/01 01:10:17;;;;;;;;;;;;;;;15.58;46.99;100574.69;4975877;28;6851;-73
2023/05/01 01:13:07;;;;;;;;;;;;;;;15.60;47.06;100570.44;5014919;28;7311;-75
2023/05/01 01:15:52;;;;;;;;;;;;;;;15.62;47.34;100567.91;4980257;28;6816;-75
2023/05/01 01:18:42;;;;;;;;;;;;;;;15.64;46.96;100561.91;4975106;28;8215;-76
2023/05/01 01:21:17;;;;;;;;;;;;;;;15.67;46.80;100555.97;4981659;28;6804;-75
2023/05/01 01:24:34;;;;;;;;;;;;;;;15.71;47.29;100555.25;4970707;28;8762;-75
2023/05/01 01:27:12;;;;;;;;;;;;;;;15.72;47.14;100554.41;4973020;28;7261;-74
2023/05/01 01:30:24;;;;;;;;;;;;;;;15.75;47.20;100543.31;5007009;28;6979;-74
2023/05/01 01:33:23;;;;;;;;;;;;;;;15.76;47.12;100547.63;4978455;28;11242;-75
2023/05/01 01:36:01;;;;;;;;;;;;;;;15.78;47.13;100545.97;4978360;28;7029;-75
2023/05/01 01:38:42;;;;;;;;;;;;;;;15.80;47.45;100545.19;4995282;28;7014;-76
2023/05/01 01:41:16;;;;;;;;;;;;;;;15.81;47.21;100538.28;4970945;28;6800;-74
2023/05/01 01:44:05;;;;;;;;;;;;;;;15.83;47.28;100531.44;4980552;28;7602;-73
2023/05/01 01:46:38;;;;;;;;;;;;;;;15.85;47.48;100527.22;4989956;28;7142;-73
2023/05/01 01:49:15;;;;;;;;;;;;;;;15.87;47.41;100528.16;4991124;28;8476;-74
2023/05/01 01:51:44;;;;;;;;;;;;;;;15.88;47.56;100519.56;4976190;28;6811;-72
2023/05/01 01:54:17;;;;;;;;;;;;;;;15.89;47.58;100526.47;4975496;28;7231;-73
2023/05/01 01:56:45;;;;;;;;;;;;;;;15.90;47.64;100525.66;4977336;28;7054;-73
2023/05/01 01:59:15;;;;;;;;;;;;;;;15.93;47.36;100514.53;5000950;28;7142;-75
2023/05/01 02:01:43;;;;;;;;;;;;;;;15.95;47.46;100513.75;5013660;28;6832;-74
2023/05/01 02:04:10;;;;;;;;;;;;;;;15.95;47.47;100507.69;4955690;28;6992;-75
2023/05/01 02:06:38;;;;;;;;;;;;;;;15.95;47.72;100508.59;4987804;28;6792;-73
2023/05/01 02:09:08;;;;;;;;;;;;;;;15.98;47.25;100507.78;5012964;28;6879;-73
2023/05/01 02:11:36;;;;;;;;;;;;;;;16.00;47.31;100507.81;4994959;28;7235;-74
2023/05/01 02:14:05;;;;;;;;;;;;;;;16.01;47.57;100501.81;4979797;28;7459;-73
2023/05/01 02:16:34;;;;;;;;;;;;;;;16.02;47.35;100508.75;4977083;28;7078;-73
2023/05/01 02:19:03;;;;;;;;;;;;;;;16.02;47.22;100490.66;4997891;28;7133;-74
2023/05/01 02:21:31;;;;;;;;;;;;;;;16.02;47.14;100494.13;4977808;28;6800;-72
2023/05/01 02:24:00;;;;;;;;;;;;;;;15.99;47.34;100478.53;4963890;28;6981;-75
2023/05/01 02:26:29;;;;;;;;;;;;;;;15.96;47.12;100481.91;4972431;28;6792;-74
2023/05/01 02:28:54;;;;;;;;;;;;;;;15.95;47.02;100476.69;4973693;28;9735;-73
2023/05/01 02:31:21;;;;;;;;;;;;;;;15.93;47.60;100479.25;4954496;28;7143;-73
2023/05/01 02:33:47;;;;;;;;;;;;;;;15.93;47.55;100484.41;5012370;28;8460;-72
2023/05/01 02:36:13;;;;;;;;;;;;;;;15.93;47.44;100478.34;4996951;28;7199;-75
2023/05/01 02:38:40;;;;;;;;;;;;;;;15.89;47.41;100479.09;4980831;28;7091;-75
2023/05/01 02:41:10;;;;;;;;;;;;;;;15.84;47.50;100473.78;4975064;28;6927;-75
2023/05/01 02:43:39;;;;;;;;;;;;;;;15.80;48.05;100467.66;4962183;28;8593;-75
2023/05/01 02:46:09;;;;;;;;;;;;;;;15.77;48.15;100475.31;4978500;28;7892;-76
2023/05/01 02:48:38;;;;;;;;;;;;;;;15.74;48.00;100464.00;4979528;28;6800;-75
2023/05/01 02:51:06;;;;;;;;;;;;;;;15.72;48.06;100463.09;4991738;28;7029;-75
2023/05/01 02:53:34;;;;;;;;;;;;;;;15.69;47.97;100462.19;4973108;28;7212;-76
2023/05/01 02:56:03;;;;;;;;;;;;;;;15.65;47.97;100452.59;4995522;28;7158;-76
2023/05/01 02:58:33;;;;;;;;;;;;;;;15.63;47.88;100456.84;4978780;28;7196;-76
2023/05/01 03:00:59;;;;;;;;;;;;;;;15.60;47.93;100454.16;4978649;28;6800;-76
2023/05/01 03:03:25;;;;;;;;;;;;;;;15.60;48.45;100453.31;4979446;28;6848;-76
2023/05/01 03:05:51;;;;;;;;;;;;;;;15.58;48.23;100453.25;4980355;28;7743;-76
2023/05/01 03:08:16;;;;;;;;;;;;;;;15.54;48.45;100451.41;4983333;28;7153;-76
2023/05/01 03:10:42;;;;;;;;;;;;;;;15.49;48.68;100446.09;4982558;28;6848;-76
2023/05/01 03:13:09;;;;;;;;;;;;;;;15.46;48.70;100443.44;4960923;28;6948;-77
2023/05/01 03:15:36;;;;;;;;;;;;;;;15.44;48.78;100452.88;4969232;28;6950;-75
2023/05/01 03:18:03;;;;;;;;;;;;;;;15.39;48.71;100444.09;4980921;28;6974;-76
2023/05/01 03:20:29;;;;;;;;;;;;;;;15.34;48.81;100441.38;4978375;28;7007;-76
2023/05/01 03:22:55;;;;;;;;;;;;;;;15.31;49.00;100441.31;4961974;28;7664;-76
2023/05/01 03:25:21;;;;;;;;;;;;;;;15.26;48.95;100441.16;4961845;28;6834;-76
2023/05/01 03:27:47;;;;;;;;;;;;;;;15.24;49.30;100440.25;4971421;28;8249;-76
2023/05/01 03:30:13;;;;;;;;;;;;;;;15.20;49.28;100437.53;4975583;28;8462;-76
2023/05/01 03:32:39;;;;;;;;;;;;;;;15.17;49.07;100433.16;4965913;28;6788;-76
2023/05/01 03:35:05;;;;;;;;;;;;;;;15.14;49.25;100428.75;4963194;28;7033;-76
2023/05/01 03:37:32;;;;;;;;;;;;;;;15.13;49.87;100421.84;4977988;28;6780;-76
2023/05/01 03:39:58;;;;;;;;;;;;;;;15.12;49.38;100419.25;4979374;28;6780;-76
2023/05/01 03:42:24;;;;;;;;;;;;;;;15.11;49.63;100418.34;4969583;28;8268;-76
2023/05/01 03:44:50;;;;;;;;;;;;;;;15.10;49.65;100414.03;4991912;28;7158;-76
2023/05/01 03:47:16;;;;;;;;;;;;;;;15.09;49.24;100416.56;4972299;28;8063;-76
2023/05/01 03:49:42;;;;;;;;;;;;;;;15.06;49.84;100409.59;4976694;28;6874;-76
2023/05/01 03:52:10;;;;;;;;;;;;;;;15.03;50.11;100414.66;4966394;28;7190;-76
2023/05/01 03:54:37;;;;;;;;;;;;;;;14.99;49.73;100413.69;4986256;28;6984;-76
2023/05/01 03:57:03;;;;;;;;;;;;;;;14.97;49.81;100414.50;4980249;28;6788;-76
2023/05/01 03:59:29;;;;;;;;;;;;;;;14.93;49.98;100415.22;5002508;28;6784;-76
2023/05/01 04:01:55;;;;;;;;;;;;;;;14.89;49.89;100406.50;4998546;28;8322;-76
2023/05/01 04:04:20;;;;;;;;;;;;;;;14.85;50.07;100413.28;4977769;28;6760;-76
2023/05/01 04:06:48;;;;;;;;;;;;;;;14.81;49.95;100406.28;4982876;28;6771;-76
2023/05/01 04:09:15;;;;;;;;;;;;;;;14.77;50.57;100409.56;4981191;28;9385;-76
2023/05/01 04:11:40;;;;;;;;;;;;;;;14.74;50.30;100411.22;4988391;28;6998;-76
2023/05/01 04:14:06;;;;;;;;;;;;;;;14.71;50.39;100406.78;4978571;28;6768;-76
2023/05/01 04:16:32;;;;;;;;;;;;;;;14.69;50.51;100400.72;4980669;28;6767;-76
2023/05/01 04:18:57;;;;;;;;;;;;;;;14.68;50.80;100409.28;4978967;28;6979;-76
2023/05/01 04:21:23;;;;;;;;;;;;;;;14.66;50.66;100408.34;4988129;28;6846;-76
2023/05/01 04:23:48;;;;;;;;;;;;;;;14.65;51.48;100401.44;4987064;28;6784;-76
2023/05/01 04:26:15;;;;;;;;;;;;;;;14.64;51.65;100404.84;4955401;28;7484;-76
2023/05/01 04:28:40;;;;;;;;;;;;;;;14.66;51.39;100403.19;4980455;28;6800;-76
2023/05/01 04:31:06;;;;;;;;;;;;;;;14.69;52.04;100405.88;4978846;28;6783;-78
2023/05/01 04:33:32;;;;;;;;;;;;;;;14.71;51.78;100396.47;4981054;28;6772;-78
2023/05/01 04:35:57;;;;;;;;;;;;;;;14.76;51.44;100396.66;4987489;28;7141;-78
2023/05/01 04:38:23;;;;;;;;;;;;;;;14.80;51.57;100395.91;4984261;28;6801;-78
2023/05/01 04:40:49;;;;;;;;;;;;;;;14.84;51.77;100396.03;4982630;28;7220;-76
2023/05/01 04:43:15;;;;;;;;;;;;;;;14.92;51.52;100400.56;4980923;28;6772;-76
2023/05/01 04:45:40;;;;;;;;;;;;;;;14.98;52.02;100399.03;5019985;28;7361;-76
2023/05/01 04:48:06;;;;;;;;;;;;;;;15.05;51.95;100392.34;4958832;28;7176;-76
2023/05/01 04:50:31;;;;;;;;;;;;;;;15.13;51.94;100396.03;4980807;28;7187;-76
2023/05/01 04:52:58;;;;;;;;;;;;;;;15.19;51.85;100392.75;4965090;28;6947;-76
2023/05/01 04:55:23;;;;;;;;;;;;;;;15.30;51.35;100397.34;4969299;28;6973;-76
2023/05/01 04:57:49;;;;;;;;;;;;;;;15.37;51.36;100397.59;4966771;28;6975;-76
2023/05/01 05:00:17;;;;;;;;;;;;;;;15.44;51.27;100395.16;4970555;28;7261;-76
2023/05/01 05:02:45;;;;;;;;;;;;;;;15.52;51.53;100386.81;4985887;28;6851;-76
2023/05/01 05:05:10;;;;;;;;;;;;;;;15.59;50.92;100384.38;4983549;28;6784;-76
2023/05/01 05:07:36;;;;;;;;;;;;;;;15.65;51.13;100388.03;4969468;28;6771;-76
2023/05/01 05:10:02;;;;;;;;;;;;;;;15.71;51.15;100389.91;4977276;28;6780;-76
2023/05/01 05:12:27;;;;;;;;;;;;;;;15.77;51.12;100384.00;4973485;28;6959;-76
2023/05/01 05:14:53;;;;;;;;;;;;;;;15.83;51.09;100384.16;4976975;28;7211;-76
2023/05/01 05:17:18;;;;;;;;;;;;;;;15.88;50.76;100390.31;4963979;28;6768;-76
2023/05/01 05:19:44;;;;;;;;;;;;;;;15.95;50.73;100387.09;4976797;28;6864;-76
2023/05/01 05:22:11;;;;;;;;;;;;;;;16.01;50.50;100388.09;4964679;28;6792;-75
2023/05/01 05:24:37;;;;;;;;;;;;;;;16.07;50.31;100389.09;4967546;28;7150;-75
2023/05/01 05:27:05;;;;;;;;;;;;;;;16.15;50.69;100391.03;5011074;28;6992;-75
2023/05/01 05:29:31;;;;;;;;;;;;;;;16.20;50.31;100392.88;4973724;28;8540;-75
2023/05/01 05:31:58;;;;;;;;;;;;;;;16.27;50.38;100393.03;4966432;28;7226;-75
2023/05/01 05:34:24;;;;;;;;;;;;;;;16.31;49.98;100393.16;4952318;28;7298;-75
2023/05/01 05:36:50;;;;;;;;;;;;;;;16.38;50.35;100391.59;4998702;28;7371;-75
2023/05/01 05:39:15;;;;;;;;;;;;;;;16.45;49.90;100390.00;4999640;28;8566;-75
2023/05/01 05:41:41;;;;;;;;;;;;;;;16.53;50.43;100388.50;4971898;28;6787;-75
2023/05/01 05:44:07;;;;;;;;;;;;;;;16.59;50.16;100390.34;4974915;28;6820;-75
2023/05/01 05:46:32;;;;;;;;;;;;;;;16.65;49.71;100396.53;4974115;28;7327;-75
2023/05/01 05:48:58;;;;;;;;;;;;;;;16.70;49.58;100388.88;4970837;28;6828;-75
2023/05/01 05:51:24;;;;;;;;;;;;;;;16.74;49.38;100388.13;4979994;28;6942;-75
2023/05/01 05:53:49;;;;;;;;;;;;;;;16.79;49.66;100391.66;4946669;28;7306;-75
2023/05/01 05:56:15;;;;;;;;;;;;;;;16.84;49.53;100386.59;4978372;28;6974;-75
2023/05/01 05:58:40;;;;;;;;;;;;;;;16.88;49.51;100383.25;4948595;28;7453;-75
2023/05/01 06:01:08;;;;;;;;;;;;;;;16.93;49.28;100383.34;4978452;28;6784;-75
2023/05/01 06:03:35;;;;;;;;;;;;;;;16.99;49.27;100382.59;4983879;28;6840;-75
2023/05/01 06:06:01;;;;;;;;;;;;;;;17.04;49.21;100381.88;5005016;28;7176;-75
2023/05/01 06:08:27;;;;;;;;;;;;;;;17.10;49.44;100385.47;5005842;28;7126;-75
2023/05/01 06:10:52;;;;;;;;;;;;;;;17.17;49.21;100389.91;4972060;28;7195;-74
2023/05/01 06:13:18;;;;;;;;;;;;;;;17.24;49.17;100388.31;4961807;28;7392;-74
2023/05/01 06:15:44;;;;;;;;;;;;;;;17.30;49.47;100386.75;4962612;28;6967;-74
2023/05/01 06:18:10;;;;;;;;;;;;;;;17.37;49.34;100384.25;4972645;28;7261;-74
2023/05/01 06:20:37;;;;;;;;;;;;;;;17.45;49.20;100385.28;4985839;28;6785;-74
2023/05/01 06:23:02;;;;;;;;;;;;;;;17.54;48.84;100387.19;4983375;28;6867;-74
2023/05/01 06:25:28;;;;;;;;;;;;;;;17.61;48.69;100379.56;4980562;28;6772;-74
2023/05/01 06:27:54;;;;;;;;;;;;;;;17.70;48.78;100383.16;4982249;28;8477;-74
2023/05/01 06:30:20;;;;;;;;;;;;;;;17.79;48.95;100379.84;4997178;28;6897;-74
2023/05/01 06:32:46;;;;;;;;;;;;;;;17.89;48.60;100382.66;4976934;28;6788;-75
2023/05/01 06:35:12;;;;;;;;;;;;;;;18.02;48.62;100383.75;5002556;28;7408;-74
2023/05/01 06:37:37;;;;;;;;;;;;;;;18.15;48.80;100383.97;4967910;28;6847;-74
2023/05/01 06:40:06;;;;;;;;;;;;;;;18.26;48.38;100389.34;4980470;28;6780;-74
2023/05/01 06:42:32;;;;;;;;;;;;;;;18.35;47.88;100391.19;4998703;28;6800;-74
2023/05/01 06:44:58;;;;;;;;;;;;;;;18.42;48.32;100387.88;4973601;28;6779;-74
2023/05/01 06:47:24;;;;;;;;;;;;;;;18.49;48.06;100386.22;4996796;28;6771;-74
2023/05/01 06:49:49;;;;;;;;;;;;;;;18.55;47.53;100381.13;5003485;28;7019;-74
2023/05/01 06:52:15;;;;;;;;;;;;;;;18.63;47.95;100374.31;4975752;28;6942;-75
2023/05/01 06:54:40;;;;;;;;;;;;;;;18.76;47.80;100377.97;4983084;28;6752;-75
2023/05/01 06:57:06;;;;;;;;;;;;;;;18.90;47.55;100379.88;4971186;28;8366;-75
2023/05/01 06:59:32;;;;;;;;;;;;;;;19.04;47.13;100386.16;4978001;28;6930;-75
2023/05/01 07:01:57;;;;;;;;;;;;;;;19.21;47.34;100388.97;4994604;28;7421;-75
2023/05/01 07:04:23;;;;;;;;;;;;;;;19.37;46.98;100383.97;4997348;28;8649;-75
2023/05/01 07:06:48;;;;;;;;;;;;;;;19.55;47.10;100383.28;5010274;28;7038;-74
2023/05/01 07:09:14;;;;;;;;;;;;;;;19.71;46.58;100384.34;4977789;28;7118;-75
2023/05/01 07:11:41;;;;;;;;;;;;;;;19.84;46.06;100385.28;4977298;28;6780;-74
2023/05/01 07:14:07;;;;;;;;;;;;;;;19.93;45.96;100384.53;4973136;28;6983;-75
2023/05/01 07:16:33;;;;;;;;;;;;;;;20.03;45.72;100381.19;4983161;28;6959;-75
2023/05/01 07:18:58;;;;;;;;;;;;;;;20.17;45.76;100378.69;4974106;28;7143;-74
2023/05/01 07:21:24;;;;;;;;;;;;;;;20.35;45.69;100379.72;4970544;28;6780;-74
2023/05/01 07:23:50;;;;;;;;;;;;;;;20.54;45.67;100378.97;4976408;28;6756;-74
2023/05/01 07:26:16;;;;;;;;;;;;;;;20.73;45.10;100384.28;5001440;28;6818;-74
2023/05/01 07:28:42;;;;;;;;;;;;;;;20.88;45.20;100382.66;4975502;28;6984;-74
2023/05/01 07:31:11;;;;;;;;;;;;;;;21.08;44.76;100387.97;5015295;28;7118;-74
2023/05/01 07:33:36;;;;;;;;;;;;;;;21.30;44.56;100381.13;4994514;28;8541;-74
2023/05/01 07:36:03;;;;;;;;;;;;;;;21.54;43.72;100383.78;5001207;28;6983;-74
2023/05/01 07:38:29;;;;;;;;;;;;;;;21.70;43.19;100380.34;4997830;28;7137;-74
2023/05/01 07:40:55;;;;;;;;;;;;;;;21.80;42.50;100372.53;5003681;28;7611;-74
2023/05/01 07:43:22;;;;;;;;;;;;;;;21.91;42.02;100376.03;5034419;28;7129;-73
2023/05/01 07:45:57;;;;;;;;;;;;;;;21.99;41.47;100370.84;5018133;28;6796;-74
2023/05/01 07:48:22;;;;;;;;;;;;;;;22.02;40.91;100371.72;4995936;28;6803;-75
2023/05/01 07:50:48;;;;;;;;;;;;;;;22.00;41.02;100378.63;5019714;28;6800;-74
2023/05/01 07:53:14;;;;;;;;;;;;;;;21.98;40.87;100375.16;4991979;28;7173;-73
2023/05/01 07:55:40;;;;;;;;;;;;;;;22.03;40.37;100380.38;5004137;28;6923;-74
2023/05/01 07:58:06;;;;;;;;;;;;;;;22.10;40.20;100373.44;4988078;28;8650;-75
2023/05/01 08:00:32;;;;;;;;;;;;;;;22.17;40.28;100372.56;5017857;28;6800;-74
2023/05/01 08:02:57;;;;;;;;;;;;;;;22.33;39.93;100376.91;4989414;28;6957;-74
2023/05/01 08:05:23;;;;;;;;;;;;;;;22.47;39.88;100374.28;4993427;28;6998;-74
2023/05/01 08:07:49;;;;;;;;;;;;;;;22.65;39.12;100372.53;5011933;28;7181;-74
2023/05/01 08:10:14;;;;;;;;;;;;;;;22.88;39.22;100375.06;4995963;28;7312;-74
2023/05/01 08:12:40;;;;;;;;;;;;;;;23.20;39.05;100367.13;4998335;28;6780;-74
2023/05/01 08:15:06;;;;;;;;;;;;;;;23.50;38.88;100378.31;4994792;28;7563;-74
2023/05/01 08:17:35;;;;;;;;;;;;;;;23.77;38.74;100381.63;4990251;28;10328;-74
2023/05/01 08:20:02;;;;;;;;;;;;;;;23.94;38.08;100368.41;5013443;28;7278;-74
2023/05/01 08:22:27;;;;;;;;;;;;;;;24.11;38.06;100376.16;4997613;28;7186;-74
2023/05/01 08:24:54;;;;;;;;;;;;;;;24.30;37.69;100374.25;4999373;28;7010;-74
2023/05/01 08:27:20;;;;;;;;;;;;;;;24.44;37.15;100366.25;5021312;28;6918;-74
2023/05/01 08:29:46;;;;;;;;;;;;;;;24.53;37.15;100368.78;5019586;28;7008;-74
2023/05/01 08:32:14;;;;;;;;;;;;;;;24.63;37.00;100364.31;4996671;28;6830;-75
2023/05/01 08:34:39;;;;;;;;;;;;;;;24.76;36.50;100361.53;5033111;28;7208;-74
2023/05/01 08:37:05;;;;;;;;;;;;;;;24.88;36.73;100365.81;5005906;28;7001;-74
2023/05/01 08:39:31;;;;;;;;;;;;;;;24.96;36.21;100361.34;5004332;28;6772;-74
2023/05/01 08:41:58;;;;;;;;;;;;;;;25.02;35.69;100360.41;5004817;28;6787;-74
2023/05/01 08:44:25;;;;;;;;;;;;;;;25.06;35.63;100357.72;5005907;28;6852;-74
2023/05/01 08:47:13;;;;;;;;;;;;;;;25.17;35.30;100364.56;4998204;28;7238;-74
2023/05/01 08:49:43;;;;;;;;;;;;;;;25.29;35.13;100353.06;5026261;28;7252;-74
2023/05/01 08:52:14;;;;;;;;;;;;;;;25.44;35.23;100352.81;5001609;28;7371;-74
2023/05/01 08:54:45;;;;;;;;;;;;;;;25.62;35.38;100346.47;5008570;28;6820;-74
2023/05/01 08:57:12;;;;;;;;;;;;;;;25.88;34.90;100349.56;5005936;28;7702;-74
2023/05/01 08:59:39;;;;;;;;;;;;;;;26.20;34.79;100348.19;5036154;28;7246;-74
2023/05/01 09:02:08;;;;;;;;;;;;;;;26.56;33.88;100355.44;5019450;28;6784;-74
2023/05/01 09:04:38;;;;;;;;;;;;;;;26.84;33.32;100353.09;5032820;28;6820;-74
2023/05/01 09:07:04;;;;;;;;;;;;;;;26.85;32.93;100351.34;5006947;28;7149;-74
2023/05/01 09:09:32;;;;;;;;;;;;;;;26.88;33.01;100356.56;4981224;28;7070;-74
2023/05/01 09:12:26;;;;;;;;;;;;;;;27.11;32.79;100348.19;5003672;28;6792;-74
2023/05/01 09:14:55;;;;;;;;;;;;;;;27.34;32.43;100354.69;5019701;28;7031;-74
2023/05/01 09:17:22;;;;;;;;;;;;;;;27.48;31.91;100343.84;5032796;28;6791;-74
2023/05/01 09:19:50;;;;;;;;;;;;;;;27.59;31.76;100348.91;4979197;28;7883;-74
2023/05/01 09:22:17;;;;;;;;;;;;;;;27.78;31.70;100349.31;4992612;28;6807;-74
2023/05/01 09:24:44;;;;;;;;;;;;;;;28.02;31.30;100348.75;5028499;28;7241;-74
2023/05/01 09:27:12;;;;;;;;;;;;;;;28.23;30.88;100345.56;4996750;28;6788;-74
2023/05/01 09:29:44;;;;;;;;;;;;;;;28.47;30.48;100348.47;4999462;28;6827;-74
2023/05/01 09:32:23;;;;;;;;;;;;;;;28.73;30.87;100348.63;4997024;28;6816;-74
2023/05/01 09:34:51;;;;;;;;;;;;;;;28.84;30.44;100351.84;4997749;28;7030;-74
2023/05/01 09:37:30;;;;;;;;;;;;;;;28.81;30.54;100346.66;4997962;28;7961;-74
2023/05/01 09:40:11;;;;;;;;;;;;;;;28.67;30.33;100345.25;4986075;28;8319;-74
2023/05/01 09:42:49;;;;;;;;;;;;;;;28.47;29.92;100347.59;4987356;28;6820;-74
2023/05/01 09:45:16;;;;;;;;;;;;;;;28.32;30.59;100343.59;4992295;28;7351;-74
2023/05/01 09:47:45;;;;;;;;;;;;;;;28.31;30.20;100347.16;4967874;28;7053;-74
2023/05/01 09:50:31;;;;;;;;;;;;;;;28.38;29.88;100339.03;4994066;28;6982;-74
2023/05/01 09:53:00;;;;;;;;;;;;;;;28.45;29.91;100345.00;4992516;28;7191;-74
2023/05/01 09:55:25;;;;;;;;;;;;;;;28.55;30.06;100353.50;4979754;28;7004;-74
2023/05/01 09:57:51;;;;;;;;;;;;;;;28.63;30.20;100348.91;4975424;28;7254;-74
2023/05/01 10:00:19;;;;;;;;;;;;;;;28.72;29.79;100347.75;5017198;28;6796;-74
2023/05/01 10:02:48;;;;;;;;;;;;;;;28.85;29.89;100348.31;4977608;28;6799;-74
2023/05/01 10:05:14;;;;;;;;;;;;;;;28.92;29.67;100349.84;4978510;28;8771;-74
2023/05/01 10:07:56;;;;;;;;;;;;;;;29.07;29.85;100340.63;4998712;28;6946;-74
2023/05/01 10:10:22;;;;;;;;;;;;;;;29.30;29.44;100339.03;4978773;28;6852;-74
2023/05/01 10:12:48;;;;;;;;;;;;;;;29.43;29.26;100344.78;4992176;28;7287;-74
2023/05/01 10:15:15;;;;;;;;;;;;;;;29.46;29.63;100346.50;4995078;28;6800;-74
2023/05/01 10:17:42;;;;;;;;;;;;;;;29.46;29.00;100347.41;5008565;28;6991;-74
2023/05/01 10:20:13;;;;;;;;;;;;;;;29.51;28.72;100341.97;4993838;28;7180;-74
2023/05/01 10:22:40;;;;;;;;;;;;;;;29.77;28.89;100334.94;4990760;28;6872;-74
2023/05/01 10:25:12;;;;;;;;;;;;;;;30.27;29.07;100336.81;4984679;28;7838;-74
2023/05/01 10:27:41;;;;;;;;;;;;;;;30.76;28.57;100343.88;4971746;28;9084;-74
2023/05/01 10:30:08;;;;;;;;;;;;;;;30.92;28.37;100345.97;5009104;28;7311;-74
2023/05/01 10:32:39;;;;;;;;;;;;;;;30.89;27.84;100339.00;5013018;28;6792;-74
2023/05/01 10:35:19;;;;;;;;;;;;;;;30.87;27.76;100339.06;5010310;28;6796;-74
2023/05/01 10:38:02;;;;;;;;;;;;;;;30.95;27.64;100333.47;4986667;28;7160;-74
2023/05/01 10:40:50;;;;;;;;;;;;;;;30.91;27.52;100339.81;5021280;28;8389;-74
2023/05/01 10:43:24;;;;;;;;;;;;;;;30.78;27.54;100344.69;4993335;28;6796;-74
2023/05/01 10:45:51;;;;;;;;;;;;;;;30.75;27.56;100336.88;4985789;28;7233;-74
2023/05/01 10:48:36;;;;;;;;;;;;;;;30.81;27.22;100339.31;4979513;28;7068;-73
2023/05/01 10:51:11;;;;;;;;;;;;;;;30.76;26.79;100335.97;4995513;28;6792;-74
2023/05/01 10:53:39;;;;;;;;;;;;;;;30.75;27.08;100336.88;4994720;28;7229;-74
2023/05/01 10:56:27;;;;;;;;;;;;;;;30.79;26.85;100333.19;4999686;28;7930;-74
2023/05/01 10:59:03;;;;;;;;;;;;;;;30.86;26.92;100325.91;4994348;28;6804;-74
2023/05/01 11:01:46;;;;;;;;;;;;;;;31.04;26.86;100326.97;4985625;28;7135;-74
2023/05/01 11:04:18;;;;;;;;;;;;;;;31.04;26.85;100321.66;4976111;28;6812;-74
2023/05/01 11:07:03;;;;;;;;;;;;;;;31.04;26.73;100317.22;4984424;28;6776;-74
2023/05/01 11:09:57;;;;;;;;;;;;;;;31.21;26.56;100317.50;4972628;28;7200;-74
2023/05/01 11:12:45;;;;;;;;;;;;;;;31.10;26.41;100326.72;4981718;28;8519;-74
2023/05/01 11:15:12;;;;;;;;;;;;;;;30.76;26.96;100331.53;4976642;28;7161;-74
2023/05/01 11:17:40;;;;;;;;;;;;;;;30.28;26.78;100321.81;4978255;28;6971;-74
2023/05/01 11:20:07;;;;;;;;;;;;;;;29.72;27.03;100327.19;4974078;28;6861;-74
2023/05/01 11:22:34;;;;;;;;;;;;;;;29.09;27.67;100328.25;4978763;28;7005;-74
2023/05/01 11:25:04;;;;;;;;;;;;;;;28.40;28.55;100336.34;4995418;28;9804;-74
2023/05/01 11:27:30;;;;;;;;;;;;;;;27.72;28.85;100331.06;4961325;28;7173;-74
2023/05/01 11:29:58;;;;;;;;;;;;;;;27.14;29.85;100334.13;4961610;28;7383;-74
2023/05/01 11:32:27;;;;;;;;;;;;;;;26.67;29.68;100342.94;4988144;28;7604;-74
2023/05/01 11:34:53;;;;;;;;;;;;;;;26.31;30.48;100340.13;5009781;28;6788;-74
2023/05/01 11:37:39;;;;;;;;;;;;;;;26.00;30.72;100341.47;4979613;28;6792;-74
2023/05/01 11:40:21;;;;;;;;;;;;;;;25.84;31.12;100340.88;5010574;28;6852;-74
2023/05/01 11:42:48;;;;;;;;;;;;;;;25.84;31.36;100342.66;4981435;28;7043;-74
2023/05/01 11:45:14;;;;;;;;;;;;;;;25.89;31.01;100339.06;4972365;28;6851;-74
2023/05/01 11:47:40;;;;;;;;;;;;;;;25.94;30.99;100341.59;4993318;28;7225;-75
2023/05/01 11:50:10;;;;;;;;;;;;;;;26.04;31.05;100340.56;4977479;28;6788;-74
2023/05/01 11:52:48;;;;;;;;;;;;;;;26.21;30.89;100334.16;4998408;28;8521;-74
2023/05/01 11:55:15;;;;;;;;;;;;;;;26.46;31.04;100333.69;4985838;28;6847;-74
2023/05/01 11:57:52;;;;;;;;;;;;;;;26.90;31.18;100328.47;4996821;28;6879;-75
2023/05/01 12:00:38;;;;;;;;;;;;;;;27.68;30.48;100322.38;5016807;28;7246;-74
2023/05/01 12:03:13;;;;;;;;;;;;;;;28.14;29.76;100320.31;4983790;28;6803;-74
2023/05/01 12:05:42;;;;;;;;;;;;;;;28.24;29.66;100314.84;4983511;28;7205;-75
2023/05/01 12:08:17;;;;;;;;;;;;;;;28.27;29.76;100314.75;4979923;28;6868;-74
2023/05/01 12:10:46;;;;;;;;;;;;;;;28.40;29.30;100310.88;4989851;28;9114;-74
2023/05/01 12:13:13;;;;;;;;;;;;;;;28.71;29.58;100305.63;4981984;28;7146;-75
2023/05/01 12:15:46;;;;;;;;;;;;;;;29.18;29.43;100294.56;5017061;28;6804;-74
2023/05/01 12:18:14;;;;;;;;;;;;;;;29.54;28.52;100294.34;4991538;28;7568;-75
2023/05/01 12:20:50;;;;;;;;;;;;;;;29.69;28.03;100297.38;4997710;28;8556;-74
2023/05/01 12:23:33;;;;;;;;;;;;;;;29.67;27.45;100294.78;5008092;28;6886;-75
2023/05/01 12:25:59;;;;;;;;;;;;;;;30.07;27.33;100285.53;4959227;28;7166;-74
2023/05/01 12:28:26;;;;;;;;;;;;;;;30.87;27.48;100283.50;4979367;28;6938;-74
2023/05/01 12:30:56;;;;;;;;;;;;;;;31.77;26.61;100279.03;4975660;28;6784;-74
2023/05/01 12:33:22;;;;;;;;;;;;;;;32.58;25.43;100280.81;5008278;28;7018;-75
2023/05/01 12:35:49;;;;;;;;;;;;;;;33.24;24.39;100273.34;5005139;28;6906;-75
2023/05/01 12:38:20;;;;;;;;;;;;;;;33.45;24.05;100270.56;4993140;28;6799;-75
2023/05/01 12:40:56;;;;;;;;;;;;;;;32.89;23.88;100274.09;4992522;28;7215;-75
2023/05/01 12:43:34;;;;;;;;;;;;;;;31.86;24.04;100273.38;5009534;28;6983;-75
2023/05/01 12:46:02;;;;;;;;;;;;;;;30.94;24.60;100272.69;4973469;28;6808;-75
2023/05/01 12:48:30;;;;;;;;;;;;;;;30.17;25.50;100287.84;4976420;28;7214;-75
2023/05/01 12:50:56;;;;;;;;;;;;;;;29.52;25.22;100290.88;4973642;28;7206;-74
2023/05/01 12:53:25;;;;;;;;;;;;;;;28.81;25.71;100307.09;5007206;28;6805;-74
2023/05/01 12:55:54;;;;;;;;;;;;;;;27.99;26.42;100302.28;4979951;28;6827;-74
2023/05/01 12:58:20;;;;;;;;;;;;;;;27.24;27.03;100321.63;4989052;28;6919;-74